Airfield :
LOGIN :

Register | Disclaimer

   EN    FR    IT 

 










Legend :    VFR   Marginal VFR   IFR   Intensive IFR   Very Intensive IFR
Visi :
Ceiling :
>= 8 km
>= 3000ft
5 to 8 km
1000 to 3000 ft
1500m to 5 km
500 to 1000 ft
800 to 1500m
200 to 500 ft
< 800m
< 200 ft
Symbols :   Thunderstorms  Fog  Heavy snow  Heavy precipitations  Wind > 20 kt
SIGMETs :     Misc.  Thunderstorms  Icing  Turbulence  Mountain Waves  Volcanic Ashes






- Airport Elevation : 236 ft
- IATA code : MMX


ESMS - Malmö Sturup

CURRENT METAR :
  • 150350Z 00000KT CAVOK M02/M03 Q1029

EXPIRED METARs :
  • 150320Z 34001KT CAVOK M01/M02 Q1029
  • 150250Z 03001KT CAVOK M01/M03 Q1029
  • 150220Z 08001KT CAVOK M01/M02 Q1029
  • 150150Z 09002KT CAVOK 00/M02 Q1029

TAF TAF ESMS
Valid from the 15 at 00:00 until the 16 at 00:00 UTC


150009Z 1500/1524 VRB02KT CAVOK
BECMG 1506/1509 02012KT
TEMPO 1509/1516 SCT030TCU



MET'MAP, your aeronautical weather chart ! - Copyright ORBIFLY December 2007 - Disclaimer

ORBIFLY MET'MAP TEAM :

Programming & Development : Alexandra Zaïnal
Concept & original design : Baudouin d'Aumeries
Assistance for programming : Marc-Olivier Méhu
Technical & hardware support : Manuel Goepfert

Contact : metmap@orbifly.com




SOURCES & CREDITS :

   NOAA